createdAt,value
2019-06-20T00:02:06.227Z,41.00
2019-06-20T00:04:32.462Z,41.50
2019-06-20T00:06:58.606Z,41.10
2019-06-20T00:09:24.840Z,41.20
2019-06-20T00:11:51.798Z,41.20
2019-06-20T00:14:18.025Z,41.20
2019-06-20T00:16:44.220Z,41.30
2019-06-20T00:19:10.504Z,41.30
2019-06-20T00:21:36.656Z,41.40
2019-06-20T00:24:03.198Z,41.60
2019-06-20T00:26:29.661Z,41.60
2019-06-20T00:28:55.872Z,41.50
2019-06-20T00:31:22.016Z,41.60
2019-06-20T00:33:48.346Z,41.70
2019-06-20T00:36:14.914Z,41.80
2019-06-20T00:38:41.193Z,41.90
2019-06-20T00:41:07.690Z,42.00
2019-06-20T00:43:33.840Z,41.90
2019-06-20T00:46:00.062Z,42.10
2019-06-20T00:48:26.207Z,42.10
2019-06-20T00:50:52.439Z,42.20
2019-06-20T00:53:18.592Z,42.20
2019-06-20T00:55:44.885Z,42.30
2019-06-20T00:58:11.441Z,42.40
2019-06-20T01:00:37.905Z,42.50
2019-06-20T01:03:04.051Z,42.50
2019-06-20T01:05:30.281Z,42.60
2019-06-20T01:07:56.770Z,42.70
2019-06-20T01:10:23.156Z,42.80
2019-06-20T01:12:49.294Z,42.80
2019-06-20T01:15:15.741Z,42.80
2019-06-20T01:17:42.083Z,42.90
2019-06-20T01:20:09.300Z,42.90
2019-06-20T01:22:35.531Z,43.00
2019-06-20T01:25:02.076Z,43.00
2019-06-20T01:27:28.216Z,43.10
2019-06-20T01:29:54.418Z,43.20
2019-06-20T01:32:20.552Z,43.30
2019-06-20T01:34:47.685Z,43.40
2019-06-20T01:37:13.906Z,43.50
2019-06-20T01:39:40.142Z,43.50
2019-06-20T01:42:06.831Z,43.60
2019-06-20T01:46:59.146Z,43.30
2019-06-20T01:49:25.356Z,43.80
2019-06-20T01:51:51.764Z,43.80
2019-06-20T01:54:18.298Z,43.80
2019-06-20T01:56:44.447Z,44.40
2019-06-20T01:59:10.645Z,44.00
2019-06-20T02:01:37.031Z,44.00
2019-06-20T02:04:03.523Z,44.10
2019-06-20T02:06:29.667Z,44.20
2019-06-20T02:08:55.872Z,44.20
2019-06-20T02:11:22.381Z,44.20
2019-06-20T02:13:48.894Z,44.30
2019-06-20T02:16:15.047Z,44.40
2019-06-20T02:18:41.263Z,44.40
2019-06-20T02:21:07.811Z,44.60
2019-06-20T02:23:34.027Z,44.60
2019-06-20T02:26:00.200Z,45.00
2019-06-20T02:28:26.371Z,44.80
2019-06-20T02:30:52.862Z,45.40
2019-06-20T02:33:19.422Z,45.00
2019-06-20T02:35:45.547Z,45.80
2019-06-20T02:38:12.060Z,45.30
2019-06-20T02:40:38.514Z,45.40
2019-06-20T02:43:04.814Z,45.50
2019-06-20T02:45:31.454Z,45.60
2019-06-20T02:47:57.618Z,45.60
2019-06-20T02:50:25.221Z,45.70
2019-06-20T02:52:51.370Z,45.70
2019-06-20T02:55:17.789Z,45.80
2019-06-20T02:57:43.942Z,46.00
2019-06-20T03:00:11.709Z,45.90
2019-06-20T03:02:37.887Z,46.10
2019-06-20T03:05:05.909Z,46.10
2019-06-20T03:07:32.051Z,46.20
2019-06-20T03:09:58.266Z,46.20
2019-06-20T03:12:24.506Z,46.30
2019-06-20T03:14:51.017Z,46.40
2019-06-20T03:17:17.550Z,46.50
2019-06-20T03:19:43.686Z,46.70
2019-06-20T03:22:10.703Z,46.80
2019-06-20T03:24:36.836Z,47.00
2019-06-20T03:27:03.456Z,47.00
2019-06-20T03:29:29.728Z,47.20
2019-06-20T03:31:56.242Z,47.30
2019-06-20T03:34:22.522Z,47.40
2019-06-20T03:36:48.818Z,47.60
2019-06-20T03:39:15.427Z,47.70
2019-06-20T03:41:41.989Z,47.80
2019-06-20T03:44:08.347Z,47.90
2019-06-20T03:46:34.506Z,47.90
2019-06-20T03:49:00.757Z,48.00
2019-06-20T03:51:26.902Z,48.10
2019-06-20T03:53:53.420Z,48.20
2019-06-20T03:56:20.171Z,48.40
2019-06-20T03:58:46.591Z,48.40
2019-06-20T04:01:12.744Z,48.40
2019-06-20T04:03:38.969Z,48.40
2019-06-20T04:06:05.134Z,48.50
2019-06-20T04:08:31.359Z,48.40
2019-06-20T04:10:57.576Z,48.50
2019-06-20T04:13:24.021Z,48.50
2019-06-20T04:15:50.160Z,48.50
2019-06-20T04:18:16.378Z,48.50
2019-06-20T04:20:42.845Z,48.60
2019-06-20T04:23:09.049Z,48.50
2019-06-20T04:25:35.223Z,48.50
2019-06-20T04:28:01.456Z,48.70
2019-06-20T04:30:27.615Z,48.70
2019-06-20T04:32:54.115Z,48.60
2019-06-20T04:35:20.343Z,48.70
2019-06-20T04:37:46.552Z,48.60
2019-06-20T04:40:12.786Z,48.60
2019-06-20T04:42:38.936Z,48.60
2019-06-20T04:45:13.144Z,48.50
2019-06-20T04:47:39.597Z,48.60
2019-06-20T04:50:05.833Z,48.60
2019-06-20T04:52:32.278Z,48.60
2019-06-20T04:54:58.819Z,48.70
2019-06-20T04:57:24.959Z,48.60
2019-06-20T04:59:53.096Z,49.10
2019-06-20T05:02:21.147Z,49.60
2019-06-20T05:04:47.390Z,49.50
2019-06-20T05:07:18.072Z,49.50
2019-06-20T05:09:46.473Z,49.40
2019-06-20T05:12:12.922Z,49.20
2019-06-20T05:14:39.398Z,49.10
2019-06-20T05:17:07.260Z,48.90
2019-06-20T05:19:33.697Z,48.50
2019-06-20T05:21:59.843Z,48.20
2019-06-20T05:24:26.078Z,47.80
2019-06-20T05:26:52.239Z,47.70
2019-06-20T05:29:18.812Z,47.60
2019-06-20T05:31:44.981Z,47.50
2019-06-20T05:34:11.323Z,47.50
2019-06-20T05:36:37.481Z,47.30
2019-06-20T05:39:05.555Z,47.40
2019-06-20T05:41:32.134Z,47.30
2019-06-20T05:43:58.281Z,47.40
2019-06-20T05:46:24.571Z,47.70
2019-06-20T05:48:51.026Z,47.80
2019-06-20T05:51:17.247Z,47.60
2019-06-20T05:53:43.773Z,47.50
2019-06-20T05:56:11.471Z,47.40
2019-06-20T05:58:38.024Z,47.20
2019-06-20T06:01:04.243Z,47.00
2019-06-20T06:03:30.690Z,46.90
2019-06-20T06:05:57.392Z,46.60
2019-06-20T06:08:23.617Z,46.60
2019-06-20T06:10:50.213Z,46.40
2019-06-20T06:13:16.664Z,46.30
2019-06-20T06:15:43.181Z,46.20
2019-06-20T06:18:09.345Z,46.20
2019-06-20T06:20:35.650Z,46.10
2019-06-20T06:23:01.791Z,46.00
2019-06-20T06:25:28.081Z,45.90
2019-06-20T06:27:54.342Z,45.90
2019-06-20T06:30:20.694Z,45.90
2019-06-20T06:32:46.851Z,46.00
2019-06-20T06:35:14.959Z,46.20
2019-06-20T06:37:41.115Z,46.30
2019-06-20T06:40:09.835Z,46.30
2019-06-20T06:42:35.982Z,46.30
2019-06-20T06:45:06.139Z,46.40
2019-06-20T06:47:32.504Z,46.50
2019-06-20T06:49:58.650Z,46.60
2019-06-20T06:52:25.393Z,46.80
2019-06-20T06:54:51.587Z,47.00
2019-06-20T06:57:17.858Z,47.10
2019-06-20T06:59:47.195Z,47.30
2019-06-20T07:02:13.732Z,47.50
2019-06-20T07:04:40.177Z,47.60
2019-06-20T07:07:06.712Z,47.90
2019-06-20T07:09:35.418Z,47.50
2019-06-20T07:12:01.505Z,47.50
2019-06-20T07:14:27.658Z,47.50
2019-06-20T07:17:00.247Z,47.30
2019-06-20T07:19:21.954Z,47.20
2019-06-20T07:21:48.125Z,47.10
2019-06-20T07:24:14.321Z,46.70
2019-06-20T07:26:40.913Z,46.30
2019-06-20T07:29:07.060Z,46.10
2019-06-20T07:31:33.423Z,45.80
2019-06-20T07:33:59.573Z,45.80
2019-06-20T07:36:26.263Z,45.80
2019-06-20T07:38:52.581Z,45.70
2019-06-20T07:41:18.911Z,45.50
2019-06-20T07:43:45.170Z,46.10
2019-06-20T07:46:11.302Z,45.30
2019-06-20T07:48:37.813Z,45.00
2019-06-20T07:51:03.956Z,44.50
2019-06-20T07:53:30.183Z,44.10
2019-06-20T07:55:56.322Z,43.90
2019-06-20T07:58:22.557Z,43.80
2019-06-20T08:00:48.716Z,43.60
2019-06-20T08:03:15.295Z,43.30
2019-06-20T08:05:41.449Z,43.10
2019-06-20T08:08:09.125Z,43.10
2019-06-20T08:10:35.439Z,42.60
2019-06-20T08:13:01.826Z,41.90
2019-06-20T08:15:27.977Z,41.50
2019-06-20T08:17:54.486Z,41.20
2019-06-20T08:20:21.221Z,41.10
2019-06-20T08:22:47.515Z,41.00
2019-06-20T08:25:16.556Z,41.10
2019-06-20T08:27:49.340Z,41.00
2019-06-20T08:30:19.279Z,41.40
2019-06-20T08:32:45.662Z,41.90
2019-06-20T08:35:12.239Z,42.70
2019-06-20T08:37:38.413Z,43.50
2019-06-20T08:40:15.498Z,44.50
2019-06-20T08:42:41.629Z,45.00
2019-06-20T08:45:12.392Z,45.30
2019-06-20T08:47:38.556Z,44.80
2019-06-20T08:50:06.160Z,43.80
2019-06-20T08:52:32.487Z,42.90
2019-06-20T08:54:59.583Z,42.10
2019-06-20T08:57:26.188Z,41.40
2019-06-20T08:59:52.469Z,40.60
2019-06-20T09:02:19.219Z,40.10
2019-06-20T09:04:45.804Z,39.50
2019-06-20T09:07:11.970Z,39.20
2019-06-20T09:09:38.468Z,39.00
2019-06-20T09:12:05.262Z,38.70
2019-06-20T09:14:31.710Z,38.70
2019-06-20T09:16:59.293Z,38.90
2019-06-20T09:19:26.063Z,39.20
2019-06-20T09:21:53.898Z,39.50
2019-06-20T09:24:20.427Z,39.80
2019-06-20T09:26:46.573Z,40.00
2019-06-20T09:29:13.255Z,40.20
2019-06-20T09:31:39.436Z,40.30
2019-06-20T09:34:05.782Z,40.50
2019-06-20T09:36:32.028Z,40.60
2019-06-20T09:38:59.585Z,40.80
2019-06-20T09:41:25.900Z,40.90
2019-06-20T09:43:54.212Z,41.10
2019-06-20T09:46:20.508Z,41.00
2019-06-20T09:48:46.663Z,41.20
2019-06-20T09:51:12.953Z,41.90
2019-06-20T09:53:39.118Z,41.60
2019-06-20T09:56:05.629Z,42.50
2019-06-20T09:58:31.834Z,44.00
2019-06-20T10:01:01.969Z,45.20
2019-06-20T10:03:28.114Z,45.40
2019-06-20T10:05:54.744Z,45.50
2019-06-20T10:08:21.079Z,45.00
2019-06-20T10:10:49.351Z,44.50
2019-06-20T10:13:15.818Z,42.60
2019-06-20T10:15:42.370Z,42.20
2019-06-20T10:18:08.523Z,40.60
2019-06-20T10:20:39.038Z,39.50
2019-06-20T10:23:05.519Z,37.40
2019-06-20T10:25:32.122Z,35.60
2019-06-20T10:27:58.283Z,34.00
2019-06-20T10:30:25.979Z,32.70
2019-06-20T10:32:53.245Z,32.00
2019-06-20T10:35:20.825Z,31.60
2019-06-20T10:37:48.348Z,31.20
2019-06-20T10:40:17.875Z,30.60
2019-06-20T10:42:44.976Z,30.00
2019-06-20T10:45:22.807Z,29.70
2019-06-20T10:47:50.947Z,29.00
2019-06-20T10:50:18.490Z,28.30
2019-06-20T10:52:45.296Z,27.50
2019-06-20T10:55:12.006Z,27.00
2019-06-20T10:57:38.229Z,26.90
2019-06-20T11:00:10.512Z,26.60
2019-06-20T11:02:37.541Z,26.30
2019-06-20T11:05:05.293Z,25.40
2019-06-20T11:07:31.636Z,25.00
2019-06-20T11:09:58.030Z,24.40
2019-06-20T11:12:24.405Z,24.20
2019-06-20T11:14:50.566Z,24.10
2019-06-20T11:17:16.803Z,23.70
2019-06-20T11:19:43.768Z,23.60
2019-06-20T11:22:10.172Z,23.40
2019-06-20T11:24:37.429Z,23.30
2019-06-20T11:27:04.869Z,23.20
2019-06-20T11:29:31.272Z,23.30
2019-06-20T11:31:57.674Z,23.30
2019-06-20T11:34:23.863Z,23.20
2019-06-20T11:36:50.108Z,23.20
2019-06-20T11:39:16.272Z,23.00
2019-06-20T11:41:43.676Z,22.80
2019-06-20T11:44:10.310Z,22.80
2019-06-20T11:46:37.006Z,23.00
2019-06-20T11:49:04.103Z,23.20
2019-06-20T11:51:30.265Z,23.20
2019-06-20T11:53:56.901Z,23.10
2019-06-20T11:56:23.085Z,23.20
2019-06-20T11:58:49.341Z,23.10
2019-06-20T12:01:15.563Z,23.00
2019-06-20T12:03:44.595Z,23.20
2019-06-20T12:06:11.354Z,23.40
2019-06-20T12:08:39.079Z,23.60
2019-06-20T12:11:05.759Z,23.80
2019-06-20T12:13:32.046Z,23.90
2019-06-20T12:15:58.228Z,24.20
2019-06-20T12:18:24.523Z,24.40
2019-06-20T12:20:50.730Z,24.90
2019-06-20T12:23:16.990Z,25.20
2019-06-20T12:25:44.269Z,25.50
2019-06-20T12:28:10.779Z,25.90
2019-06-20T12:30:38.417Z,26.20
2019-06-20T12:33:05.308Z,26.60
2019-06-20T12:35:31.492Z,26.90
2019-06-20T12:37:57.865Z,27.20
2019-06-20T12:40:24.426Z,27.60
2019-06-20T12:42:51.004Z,27.80
2019-06-20T12:45:17.481Z,28.10
2019-06-20T12:47:44.235Z,28.40
2019-06-20T12:50:13.109Z,28.60
2019-06-20T12:52:40.702Z,28.90
2019-06-20T12:55:10.153Z,29.20
2019-06-20T12:57:38.495Z,29.40
2019-06-20T13:00:11.179Z,29.60
2019-06-20T13:02:38.688Z,29.90
2019-06-20T13:05:06.394Z,30.00
2019-06-20T13:07:32.545Z,30.30
2019-06-20T13:09:58.907Z,30.50
2019-06-20T13:12:25.673Z,30.80
2019-06-20T13:14:51.973Z,30.90
2019-06-20T13:17:18.266Z,31.20
2019-06-20T13:19:46.438Z,31.20
2019-06-20T13:22:12.915Z,31.40
2019-06-20T13:24:39.729Z,31.40
2019-06-20T13:27:07.136Z,31.70
2019-06-20T13:29:33.718Z,31.80
2019-06-20T13:32:04.411Z,31.90
2019-06-20T13:34:28.087Z,32.00
2019-06-20T13:36:54.311Z,32.00
2019-06-20T13:39:20.544Z,32.00
2019-06-20T13:41:47.826Z,32.20
2019-06-20T13:44:16.093Z,32.90
2019-06-20T13:46:44.510Z,33.40
2019-06-20T13:49:11.153Z,34.10
2019-06-20T13:51:39.946Z,34.60
2019-06-20T13:54:06.196Z,35.00
2019-06-20T13:56:32.372Z,35.50
2019-06-20T13:58:59.083Z,36.00
2019-06-20T14:01:25.522Z,36.20
2019-06-20T14:03:51.697Z,36.80
2019-06-20T14:06:17.979Z,37.10
2019-06-20T14:08:45.960Z,37.40
2019-06-20T14:11:13.070Z,37.90
2019-06-20T14:13:41.095Z,37.40
2019-06-20T14:16:07.953Z,37.30
2019-06-20T14:18:34.407Z,37.30
2019-06-20T14:21:01.347Z,37.30
2019-06-20T14:23:27.876Z,37.30
2019-06-20T14:25:54.164Z,37.50
2019-06-20T14:28:20.340Z,37.60
2019-06-20T14:30:48.349Z,37.80
2019-06-20T14:33:14.651Z,37.90
2019-06-20T14:35:43.509Z,38.00
2019-06-20T14:38:09.694Z,38.00
2019-06-20T14:40:35.968Z,37.70
2019-06-20T14:43:02.126Z,37.80
2019-06-20T14:45:28.445Z,37.90
2019-06-20T14:47:55.240Z,38.60
2019-06-20T14:50:22.182Z,38.40
2019-06-20T14:52:50.020Z,38.40
2019-06-20T14:55:17.869Z,38.40
2019-06-20T14:57:46.953Z,38.10
2019-06-20T15:00:17.827Z,37.90
2019-06-20T15:02:45.844Z,37.80
2019-06-20T15:05:15.133Z,38.10
2019-06-20T15:07:41.770Z,38.30
2019-06-20T15:10:08.064Z,38.30
2019-06-20T15:12:34.318Z,38.30
2019-06-20T15:15:00.480Z,38.20
2019-06-20T15:17:26.798Z,38.10
2019-06-20T15:19:54.261Z,38.00
2019-06-20T15:22:20.795Z,37.80
2019-06-20T15:24:50.012Z,37.90
2019-06-20T15:27:15.201Z,37.80
2019-06-20T15:29:41.371Z,37.80
2019-06-20T15:32:07.666Z,37.70
2019-06-20T15:34:33.828Z,37.50
2019-06-20T15:37:00.617Z,37.50
2019-06-20T15:39:27.521Z,37.50
2019-06-20T15:41:54.301Z,37.90
2019-06-20T15:44:20.617Z,38.00
2019-06-20T15:46:48.319Z,38.00
2019-06-20T15:49:16.296Z,38.00
2019-06-20T15:51:42.764Z,38.10
2019-06-20T15:54:08.968Z,38.20
2019-06-20T15:56:35.328Z,38.20
2019-06-20T15:59:01.721Z,38.10
2019-06-20T16:01:27.907Z,38.00
2019-06-20T16:03:54.517Z,38.60
2019-06-20T16:06:20.699Z,37.80
2019-06-20T16:08:46.971Z,37.90
2019-06-20T16:11:13.607Z,37.90
2019-06-20T16:13:40.028Z,37.60
2019-06-20T16:16:06.182Z,37.70
2019-06-20T16:18:32.499Z,37.50
2019-06-20T16:20:58.965Z,37.60
2019-06-20T16:23:25.292Z,37.40
2019-06-20T16:25:51.527Z,37.50
2019-06-20T16:28:17.849Z,37.40
2019-06-20T16:30:44.119Z,37.30
2019-06-20T16:33:24.065Z,37.20
2019-06-20T16:35:39.101Z,37.20
2019-06-20T16:38:05.437Z,37.10
2019-06-20T16:40:44.428Z,37.10
2019-06-20T16:43:10.894Z,37.10
2019-06-20T16:45:37.153Z,37.00
2019-06-20T16:48:03.843Z,37.00
2019-06-20T16:50:30.002Z,36.90
2019-06-20T16:52:56.700Z,36.90
2019-06-20T16:55:22.856Z,36.90
2019-06-20T16:57:50.033Z,36.90
2019-06-20T17:00:16.712Z,36.90
2019-06-20T17:02:42.974Z,36.80
2019-06-20T17:05:11.433Z,36.60
2019-06-20T17:07:37.806Z,37.20
2019-06-20T17:10:05.681Z,36.50
2019-06-20T17:12:31.927Z,36.70
2019-06-20T17:14:58.294Z,36.80
2019-06-20T17:17:24.469Z,36.70
2019-06-20T17:19:51.176Z,36.60
2019-06-20T17:22:17.337Z,36.70
2019-06-20T17:24:44.008Z,36.60
2019-06-20T17:27:10.207Z,36.60
2019-06-20T17:29:36.892Z,36.70
2019-06-20T17:32:03.271Z,36.50
2019-06-20T17:34:29.850Z,36.50
2019-06-20T17:36:56.004Z,36.40
2019-06-20T17:39:22.629Z,36.40
2019-06-20T17:41:55.254Z,36.40
2019-06-20T17:44:17.391Z,36.40
2019-06-20T17:46:43.894Z,36.20
2019-06-20T17:49:10.436Z,36.20
2019-06-20T17:51:36.802Z,36.20
2019-06-20T17:54:03.845Z,36.20
2019-06-20T17:56:30.010Z,36.20
2019-06-20T17:58:56.630Z,36.40
2019-06-20T18:01:23.157Z,36.50
2019-06-20T18:03:49.427Z,36.60
2019-06-20T18:06:15.628Z,36.70
2019-06-20T18:08:42.015Z,36.80
2019-06-20T18:11:08.678Z,36.90
2019-06-20T18:13:35.138Z,36.90
2019-06-20T18:16:01.417Z,36.90
2019-06-20T18:18:27.591Z,37.70
2019-06-20T18:20:53.913Z,37.20
2019-06-20T18:23:20.086Z,37.20
2019-06-20T18:25:46.341Z,37.30
2019-06-20T18:28:12.783Z,37.50
2019-06-20T18:30:42.116Z,37.60
2019-06-20T18:33:08.815Z,37.60
2019-06-20T18:35:35.492Z,37.60
2019-06-20T18:38:02.100Z,37.70
2019-06-20T18:40:28.355Z,37.70
2019-06-20T18:42:54.553Z,37.80
2019-06-20T18:45:21.739Z,37.90
2019-06-20T18:47:47.913Z,37.90
2019-06-20T18:50:14.498Z,38.10
2019-06-20T18:52:51.646Z,38.10
2019-06-20T18:55:10.824Z,38.10
2019-06-20T18:57:37.199Z,38.10
2019-06-20T19:00:11.473Z,38.10
2019-06-20T19:02:37.847Z,38.20
2019-06-20T19:05:06.706Z,38.10
2019-06-20T19:07:33.215Z,38.30
2019-06-20T19:09:59.943Z,38.30
2019-06-20T19:12:26.296Z,38.30
2019-06-20T19:14:52.883Z,38.50
2019-06-20T19:17:19.173Z,38.60
2019-06-20T19:19:45.392Z,38.80
2019-06-20T19:22:11.623Z,38.90
2019-06-20T19:24:38.061Z,39.00
2019-06-20T19:27:04.367Z,39.20
2019-06-20T19:29:30.581Z,39.30
2019-06-20T19:31:56.913Z,39.30
2019-06-20T19:34:23.081Z,39.50
2019-06-20T19:36:50.325Z,39.50
2019-06-20T19:39:16.494Z,39.60
2019-06-20T19:41:43.038Z,39.70
2019-06-20T19:44:09.459Z,39.80
2019-06-20T19:46:35.874Z,40.00
2019-06-20T19:49:02.302Z,39.90
2019-06-20T19:51:28.752Z,40.00
2019-06-20T19:53:55.250Z,40.00
2019-06-20T19:56:21.522Z,40.10
2019-06-20T19:58:47.813Z,40.10
2019-06-20T20:01:14.090Z,40.20
2019-06-20T20:03:40.257Z,40.30
2019-06-20T20:06:06.776Z,40.30
2019-06-20T20:08:32.915Z,40.40
2019-06-20T20:10:59.542Z,40.40
2019-06-20T20:13:25.718Z,40.50
2019-06-20T20:15:51.860Z,40.50
2019-06-20T20:18:18.442Z,40.80
2019-06-20T20:20:47.542Z,41.00
2019-06-20T20:23:14.107Z,41.20
2019-06-20T20:25:40.644Z,41.60
2019-06-20T20:28:07.280Z,42.30
2019-06-20T20:30:33.457Z,43.40
2019-06-20T20:33:01.965Z,44.50
2019-06-20T20:35:35.455Z,45.70
2019-06-20T20:37:56.798Z,46.60
2019-06-20T20:40:23.492Z,48.20
2019-06-20T20:42:50.050Z,53.10
2019-06-20T20:45:18.013Z,55.60
2019-06-20T20:47:44.267Z,57.70
2019-06-20T20:50:12.091Z,59.40
2019-06-20T20:52:38.681Z,60.80
2019-06-20T20:55:06.561Z,62.70
2019-06-20T20:57:32.832Z,64.90
2019-06-20T20:59:59.318Z,66.60
2019-06-20T21:02:25.576Z,68.30
2019-06-20T21:04:51.732Z,69.50
2019-06-20T21:07:18.350Z,70.40
2019-06-20T21:09:44.885Z,71.20
2019-06-20T21:12:11.520Z,72.40
2019-06-20T21:14:37.793Z,74.40
2019-06-20T21:17:04.071Z,75.00
2019-06-20T21:19:30.739Z,75.70
2019-06-20T21:21:56.913Z,77.30
2019-06-20T21:24:23.163Z,77.20
2019-06-20T21:26:50.296Z,77.70
2019-06-20T21:29:17.322Z,78.30
2019-06-20T21:31:43.771Z,78.60
2019-06-20T21:34:10.125Z,79.00
2019-06-20T21:36:36.383Z,79.40
2019-06-20T21:39:06.244Z,79.90
2019-06-20T21:41:32.414Z,80.20
2019-06-20T21:43:59.033Z,80.60
2019-06-20T21:46:25.212Z,80.90
2019-06-20T21:48:51.794Z,81.70
2019-06-20T21:51:18.257Z,82.10
2019-06-20T21:53:44.508Z,82.50
2019-06-20T21:56:10.689Z,82.80
2019-06-20T21:58:37.375Z,82.90
2019-06-20T22:01:04.351Z,82.90
2019-06-20T22:03:30.829Z,83.00
2019-06-20T22:05:57.020Z,82.90
2019-06-20T22:08:23.640Z,82.90
2019-06-20T22:10:50.014Z,82.90
2019-06-20T22:13:16.238Z,82.90
2019-06-20T22:15:42.946Z,83.00
2019-06-20T22:18:09.142Z,83.10
2019-06-20T22:20:35.458Z,83.30
2019-06-20T22:23:01.957Z,83.40
2019-06-20T22:25:28.356Z,83.70
2019-06-20T22:27:54.557Z,84.00
2019-06-20T22:30:43.939Z,83.90
2019-06-20T22:33:10.433Z,84.00
2019-06-20T22:35:36.711Z,84.10
2019-06-20T22:38:02.979Z,84.30
2019-06-20T22:40:29.314Z,84.30
2019-06-20T22:42:55.466Z,84.30
2019-06-20T22:45:21.854Z,84.10
2019-06-20T22:47:48.346Z,84.00
2019-06-20T22:50:14.944Z,84.00
2019-06-20T22:52:41.102Z,84.40
2019-06-20T22:55:07.937Z,84.10
2019-06-20T22:57:34.508Z,84.40
2019-06-20T23:00:00.810Z,84.80
2019-06-20T23:02:26.961Z,84.90
2019-06-20T23:04:53.273Z,85.00
2019-06-20T23:07:19.438Z,85.30
2019-06-20T23:09:45.743Z,85.40
2019-06-20T23:12:12.343Z,85.30
2019-06-20T23:14:38.971Z,85.30
2019-06-20T23:17:05.124Z,85.40
2019-06-20T23:19:31.862Z,85.40
2019-06-20T23:21:58.037Z,85.60
2019-06-20T23:24:24.603Z,85.60
2019-06-20T23:26:50.868Z,85.50
2019-06-20T23:29:22.955Z,85.50
2019-06-20T23:31:52.510Z,85.80
2019-06-20T23:34:18.973Z,85.90
2019-06-20T23:36:45.491Z,86.00
2019-06-20T23:39:11.650Z,86.20
2019-06-20T23:41:37.923Z,86.30
2019-06-20T23:44:04.087Z,86.40
2019-06-20T23:46:30.405Z,86.40
2019-06-20T23:48:56.583Z,86.40
2019-06-20T23:51:25.684Z,86.30
2019-06-20T23:53:52.010Z,86.10
2019-06-20T23:56:19.667Z,85.90
2019-06-20T23:58:45.827Z,85.80
